createdAt,value
2019-03-02T00:29:46.982Z,16.50
2019-03-02T00:32:51.069Z,10.87
2019-03-02T00:35:55.017Z,10.83
2019-03-02T00:38:58.957Z,9.57
2019-03-02T00:42:02.971Z,15.20
2019-03-02T00:45:07.288Z,12.00
2019-03-02T00:48:12.387Z,12.67
2019-03-02T00:51:17.028Z,11.60
2019-03-02T00:54:21.107Z,9.73
2019-03-02T00:57:25.141Z,15.20
2019-03-02T01:00:29.162Z,11.87
2019-03-02T01:03:33.209Z,13.07
2019-03-02T01:06:37.240Z,11.23
2019-03-02T01:09:43.660Z,14.13
2019-03-02T01:16:32.157Z,12.87
2019-03-02T01:19:36.435Z,14.57
2019-03-02T01:22:40.612Z,13.00
2019-03-02T01:25:45.511Z,9.93
2019-03-02T01:28:50.404Z,16.77
2019-03-02T01:31:54.378Z,12.67
2019-03-02T01:34:58.407Z,10.97
2019-03-02T01:38:02.403Z,9.70
2019-03-02T01:41:07.260Z,9.57
2019-03-02T01:44:12.684Z,11.27
2019-03-02T01:47:17.083Z,11.63
2019-03-02T01:50:21.099Z,10.40
2019-03-02T01:53:25.052Z,12.53
2019-03-02T01:56:29.120Z,9.70
2019-03-02T01:59:35.424Z,11.27
2019-03-02T02:02:38.606Z,9.23
2019-03-02T02:05:42.594Z,9.03
2019-03-02T02:08:46.667Z,11.20
2019-03-02T02:11:53.308Z,11.27
2019-03-02T02:14:56.404Z,13.20
2019-03-02T02:18:00.653Z,11.73
2019-03-02T02:21:04.710Z,11.90
2019-03-02T02:24:08.696Z,10.07
2019-03-02T02:27:12.663Z,9.07
2019-03-02T02:30:26.272Z,13.20
2019-03-02T02:33:29.685Z,15.80
2019-03-02T02:36:33.667Z,13.33
2019-03-02T02:39:37.550Z,11.60
2019-03-02T02:42:43.162Z,9.83
2019-03-02T02:45:49.100Z,12.57
2019-03-02T02:48:52.822Z,10.87
2019-03-02T02:51:56.824Z,14.03
2019-03-02T02:55:02.425Z,9.33
2019-03-02T02:58:06.429Z,12.30
2019-03-02T03:01:10.479Z,10.83
2019-03-02T03:04:14.413Z,11.30
2019-03-02T03:07:18.370Z,11.07
2019-03-02T03:10:27.813Z,13.37
2019-03-02T03:13:35.966Z,10.63
2019-03-02T03:16:37.887Z,9.97
2019-03-02T03:19:41.824Z,12.47
2019-03-02T03:22:47.388Z,8.13
2019-03-02T03:25:56.208Z,10.60
2019-03-02T03:28:57.330Z,13.83
2019-03-02T03:32:08.725Z,11.83
2019-03-02T03:35:15.432Z,11.93
2019-03-02T03:38:12.751Z,14.60
2019-03-02T03:41:16.835Z,15.83
2019-03-02T03:44:25.639Z,15.97
2019-03-02T03:47:26.630Z,13.70
2019-03-02T03:50:30.665Z,12.47
2019-03-02T03:53:34.798Z,12.07
2019-03-02T03:56:42.460Z,16.73
2019-03-02T03:59:44.449Z,10.97
2019-03-02T04:02:48.436Z,10.27
2019-03-02T04:05:52.482Z,15.23
2019-03-02T04:08:56.570Z,10.23
2019-03-02T04:12:00.482Z,16.13
2019-03-02T04:15:04.806Z,15.53
2019-03-02T04:21:44.384Z,8.90
2019-03-02T04:24:48.365Z,9.37
2019-03-02T04:27:54.257Z,12.00
2019-03-02T04:30:58.484Z,10.50
2019-03-02T04:34:02.390Z,10.00
2019-03-02T04:37:06.293Z,11.90
2019-03-02T04:40:10.429Z,13.07
2019-03-02T04:43:15.073Z,11.47
2019-03-02T04:46:19.010Z,10.57
2019-03-02T04:49:22.936Z,8.20
2019-03-02T04:52:26.955Z,13.60
2019-03-02T04:55:30.910Z,11.27
2019-03-02T04:58:38.285Z,11.20
2019-03-02T05:01:46.228Z,15.40
2019-03-02T05:04:50.170Z,16.23
2019-03-02T05:07:54.254Z,10.40
2019-03-02T05:11:00.697Z,12.17
2019-03-02T05:14:05.365Z,11.97
2019-03-02T05:17:10.362Z,13.30
2019-03-02T05:20:14.744Z,12.03
2019-03-02T05:23:18.748Z,13.60
2019-03-02T05:26:22.751Z,18.87
2019-03-02T05:29:26.661Z,12.43
2019-03-02T05:32:30.562Z,13.20
2019-03-02T05:35:34.536Z,11.00
2019-03-02T05:38:38.565Z,14.60
2019-03-02T05:41:50.184Z,19.77
2019-03-02T05:44:54.194Z,19.07
2019-03-02T05:48:01.010Z,14.33
2019-03-02T05:51:06.749Z,13.00
2019-03-02T05:54:09.987Z,19.80
2019-03-02T06:00:51.952Z,15.90
2019-03-02T06:03:55.967Z,20.43
2019-03-02T06:06:59.893Z,16.27
2019-03-02T06:10:03.947Z,18.57
2019-03-02T06:13:08.572Z,19.73
2019-03-02T06:16:12.637Z,20.17
2019-03-02T06:19:17.413Z,20.93
2019-03-02T06:22:22.475Z,18.90
2019-03-02T06:25:26.525Z,19.03
2019-03-02T06:28:30.471Z,18.87
2019-03-02T06:31:34.495Z,19.53
2019-03-02T06:34:38.540Z,20.33
2019-03-02T06:37:42.467Z,21.37
2019-03-02T06:40:46.448Z,19.73
2019-03-02T06:43:50.551Z,25.53
2019-03-02T06:46:58.098Z,22.00
2019-03-02T06:50:00.479Z,25.83
2019-03-02T06:53:04.605Z,24.27
2019-03-02T06:56:08.605Z,23.50
2019-03-02T06:59:13.424Z,20.57
2019-03-02T07:02:37.737Z,22.23
2019-03-02T07:05:41.777Z,25.43
2019-03-02T07:08:45.877Z,21.00
2019-03-02T07:11:50.932Z,20.63
2019-03-02T07:14:54.968Z,22.83
2019-03-02T07:18:24.959Z,23.20
2019-03-02T07:21:28.928Z,20.03
2019-03-02T07:24:32.837Z,23.93
2019-03-02T07:27:37.016Z,21.30
2019-03-02T07:30:41.208Z,20.90
2019-03-02T07:33:45.231Z,18.73
2019-03-02T07:36:49.218Z,18.13
2019-03-02T07:39:53.238Z,24.77
2019-03-02T07:42:57.339Z,21.07
2019-03-02T07:46:01.232Z,20.70
2019-03-02T07:49:05.185Z,17.30
2019-03-02T07:52:09.249Z,15.87
2019-03-02T07:55:14.787Z,24.00
2019-03-02T07:58:21.363Z,14.93
2019-03-02T08:01:25.208Z,18.97
2019-03-02T08:04:29.236Z,15.23
2019-03-02T08:07:34.113Z,16.43
2019-03-02T08:10:39.860Z,17.37
2019-03-02T08:13:43.717Z,17.20
2019-03-02T08:16:47.613Z,12.20
2019-03-02T08:19:51.662Z,15.93
2019-03-02T08:22:55.691Z,18.00
2019-03-02T08:25:59.995Z,12.37
2019-03-02T08:29:04.068Z,21.90
2019-03-02T08:32:08.059Z,28.63
2019-03-02T08:35:12.809Z,17.87
2019-03-02T08:38:16.748Z,15.70
2019-03-02T08:41:20.889Z,15.27
2019-03-02T08:44:25.062Z,11.13
2019-03-02T08:47:28.877Z,7.10
2019-03-02T08:50:32.926Z,15.10
2019-03-02T08:53:36.893Z,14.83
2019-03-02T08:56:43.867Z,6.47
2019-03-02T08:59:46.647Z,10.73
2019-03-02T09:02:59.068Z,12.10
2019-03-02T09:06:11.078Z,12.77
2019-03-02T09:09:09.510Z,7.23
2019-03-02T09:12:13.429Z,3.83
2019-03-02T09:15:22.292Z,7.77
2019-03-02T09:18:30.721Z,7.57
2019-03-02T09:21:34.568Z,4.50
2019-03-02T09:24:38.937Z,3.63
2019-03-02T09:27:43.315Z,5.83
2019-03-02T09:30:48.190Z,4.70
2019-03-02T09:33:52.875Z,4.60
2019-03-02T09:36:57.290Z,9.63
2019-03-02T09:40:01.504Z,7.80
2019-03-02T09:43:05.724Z,6.57
2019-03-02T09:46:09.843Z,4.10
2019-03-02T09:49:14.134Z,4.77
2019-03-02T09:52:18.644Z,16.47
2019-03-02T09:55:22.720Z,9.40
2019-03-02T09:58:26.705Z,5.97
2019-03-02T10:01:31.028Z,7.77
2019-03-02T10:04:35.822Z,7.83
2019-03-02T10:07:44.168Z,7.07
2019-03-02T10:10:48.394Z,6.03
2019-03-02T10:13:55.598Z,6.97
2019-03-02T10:16:59.863Z,6.77
2019-03-02T10:20:05.215Z,8.07
2019-03-02T10:23:09.966Z,8.07
2019-03-02T10:26:15.812Z,5.60
2019-03-02T10:29:32.453Z,8.23
2019-03-02T10:32:36.847Z,5.33
2019-03-02T10:35:42.836Z,3.73
2019-03-02T10:38:46.978Z,3.03
2019-03-02T10:41:57.073Z,3.83
2019-03-02T10:45:00.284Z,4.67
2019-03-02T10:48:04.548Z,4.83
2019-03-02T10:51:08.782Z,6.50
2019-03-02T10:54:13.152Z,4.33
2019-03-02T10:57:17.252Z,8.90
2019-03-02T11:00:29.242Z,8.20
2019-03-02T11:03:31.761Z,3.67
2019-03-02T11:06:56.650Z,4.33
2019-03-02T11:10:12.921Z,7.37
2019-03-02T11:13:31.124Z,11.63
2019-03-02T11:16:44.526Z,6.80
2019-03-02T11:20:03.816Z,4.90
2019-03-02T11:23:25.700Z,8.57
2019-03-02T11:26:48.809Z,6.53
2019-03-02T11:30:22.773Z,5.50
2019-03-02T11:33:43.313Z,4.67
2019-03-02T11:37:13.697Z,3.97
2019-03-02T11:40:45.532Z,6.73
2019-03-02T11:44:14.284Z,3.17
2019-03-02T11:48:24.117Z,2.40
2019-03-02T11:51:40.806Z,3.50
2019-03-02T11:55:06.967Z,3.10
2019-03-02T12:01:51.573Z,4.07
2019-03-02T12:05:12.860Z,0.93
2019-03-02T12:08:41.982Z,2.10
2019-03-02T12:11:56.394Z,3.07
2019-03-02T12:15:18.301Z,5.50
2019-03-02T12:18:39.805Z,9.03
2019-03-02T12:22:05.575Z,9.67
2019-03-02T12:25:47.492Z,3.70
2019-03-02T12:29:13.368Z,6.20
2019-03-02T12:32:35.677Z,2.37
2019-03-02T12:35:51.173Z,2.83
2019-03-02T12:39:08.636Z,2.17
2019-03-02T12:42:26.715Z,2.60
2019-03-02T12:45:45.165Z,2.77
2019-03-02T12:48:55.524Z,1.60
2019-03-02T12:52:21.713Z,5.03
2019-03-02T12:55:56.782Z,4.30
2019-03-02T12:59:20.944Z,3.80
2019-03-02T13:02:51.302Z,2.47
2019-03-02T13:06:04.311Z,3.37
2019-03-02T13:09:19.910Z,4.00
2019-03-02T13:12:45.777Z,2.73
2019-03-02T13:16:27.019Z,3.70
2019-03-02T13:19:48.535Z,5.70
2019-03-02T13:23:06.551Z,5.17
2019-03-02T13:26:25.050Z,3.57
2019-03-02T13:29:39.436Z,4.70
2019-03-02T13:32:59.969Z,5.10
2019-03-02T13:36:21.757Z,5.83
2019-03-02T13:39:51.211Z,7.63
2019-03-02T13:43:04.606Z,5.03
2019-03-02T13:46:31.059Z,8.20
2019-03-02T13:49:45.267Z,6.80
2019-03-02T13:53:26.393Z,6.23
2019-03-02T13:56:46.217Z,4.30
2019-03-02T14:00:09.244Z,3.00
2019-03-02T14:03:20.806Z,8.83
2019-03-02T14:06:43.734Z,5.97
2019-03-02T14:10:15.749Z,4.50
2019-03-02T14:13:47.824Z,5.83
2019-03-02T14:16:59.098Z,5.20
2019-03-02T14:20:26.147Z,4.33
2019-03-02T14:23:37.685Z,5.90
2019-03-02T14:26:46.999Z,8.53
2019-03-02T14:30:02.886Z,5.50
2019-03-02T14:33:29.395Z,5.03
2019-03-02T14:36:36.645Z,8.07
2019-03-02T14:40:02.022Z,5.67
2019-03-02T14:43:23.768Z,4.93
2019-03-02T14:46:34.392Z,5.97
2019-03-02T14:50:02.080Z,3.50
2019-03-02T14:53:25.130Z,5.53
2019-03-02T14:56:39.817Z,4.53
2019-03-02T15:00:05.069Z,3.80
2019-03-02T15:03:29.320Z,4.27
2019-03-02T15:06:49.944Z,3.53
2019-03-02T15:10:10.141Z,5.13
2019-03-02T15:13:38.240Z,4.03
2019-03-02T15:17:01.168Z,4.70
2019-03-02T15:20:23.808Z,3.10
2019-03-02T15:23:38.938Z,4.73
2019-03-02T15:27:08.006Z,9.70
2019-03-02T15:30:40.017Z,3.83
2019-03-02T15:33:56.059Z,3.20
2019-03-02T15:37:09.325Z,3.23
2019-03-02T15:40:32.312Z,4.70
2019-03-02T15:44:00.200Z,7.80
2019-03-02T15:47:23.389Z,13.73
2019-03-02T15:50:38.597Z,15.67
2019-03-02T15:54:00.113Z,8.73
2019-03-02T15:57:39.617Z,6.37
2019-03-02T16:00:50.539Z,8.63
2019-03-02T16:04:12.551Z,4.43
2019-03-02T16:07:34.990Z,8.30
2019-03-02T16:10:58.789Z,3.60
2019-03-02T16:14:21.843Z,5.47
2019-03-02T16:17:41.471Z,5.10
2019-03-02T16:20:50.668Z,5.60
2019-03-02T16:24:04.545Z,5.27
2019-03-02T16:27:30.145Z,4.00
2019-03-02T16:30:40.370Z,3.20
2019-03-02T16:34:04.259Z,3.30
2019-03-02T16:37:25.078Z,3.20
2019-03-02T16:40:47.921Z,3.00
2019-03-02T16:44:05.144Z,5.27
2019-03-02T16:47:44.895Z,5.50
2019-03-02T16:51:06.359Z,5.43
2019-03-02T16:54:33.242Z,3.60
2019-03-02T16:57:55.058Z,6.63
2019-03-02T17:01:30.151Z,3.20
2019-03-02T17:04:55.407Z,4.10
2019-03-02T17:08:14.017Z,3.13
2019-03-02T17:11:37.101Z,4.60
2019-03-02T17:14:58.767Z,5.97
2019-03-02T17:18:17.061Z,5.73
2019-03-02T17:21:32.770Z,6.87
2019-03-02T17:24:54.061Z,5.90
2019-03-02T17:28:13.248Z,4.80
2019-03-02T17:31:40.454Z,6.20
2019-03-02T17:35:02.489Z,6.10
2019-03-02T17:38:31.432Z,5.37
2019-03-02T17:42:00.421Z,7.57
2019-03-02T17:45:26.591Z,5.60
2019-03-02T17:48:52.885Z,5.43
2019-03-02T17:52:15.560Z,7.10
2019-03-02T17:55:28.460Z,6.77
2019-03-02T17:58:45.255Z,6.53
2019-03-02T18:02:11.202Z,7.77
2019-03-02T18:05:31.390Z,6.73
2019-03-02T18:08:57.778Z,9.77
2019-03-02T18:12:19.361Z,6.53
2019-03-02T18:15:39.777Z,8.17
2019-03-02T18:18:43.591Z,9.43
2019-03-02T18:21:47.482Z,6.77
2019-03-02T18:24:51.394Z,6.60
2019-03-02T18:27:55.699Z,8.40
2019-03-02T18:30:59.828Z,5.87
2019-03-02T18:34:09.772Z,8.07
2019-03-02T18:37:13.732Z,8.37
2019-03-02T18:40:17.858Z,6.80
2019-03-02T18:43:21.763Z,8.53
2019-03-02T18:46:25.690Z,7.90
2019-03-02T18:49:38.087Z,7.27
2019-03-02T18:53:15.911Z,9.47
2019-03-02T18:56:20.004Z,9.17
2019-03-02T18:59:23.959Z,10.17
2019-03-02T19:02:29.096Z,12.53
2019-03-02T19:05:33.223Z,12.73
2019-03-02T19:08:37.046Z,9.37
2019-03-02T19:11:40.891Z,10.80
2019-03-02T19:14:44.719Z,10.50
2019-03-02T19:17:48.678Z,10.60
2019-03-02T19:20:52.504Z,9.47
2019-03-02T19:23:56.322Z,11.03
2019-03-02T19:27:00.220Z,10.37
2019-03-02T19:30:04.205Z,12.17
2019-03-02T19:33:08.161Z,11.43
2019-03-02T19:36:11.995Z,12.93
2019-03-02T19:39:22.280Z,13.67
2019-03-02T19:42:26.177Z,12.57
2019-03-02T19:45:30.101Z,14.57
2019-03-02T19:48:33.888Z,14.03
2019-03-02T19:51:37.830Z,15.90
2019-03-02T19:54:41.661Z,17.73
2019-03-02T19:57:45.641Z,14.03
2019-03-02T20:00:49.536Z,14.80
2019-03-02T20:03:53.405Z,19.13
2019-03-02T20:06:57.373Z,20.10
2019-03-02T20:10:01.371Z,18.60
2019-03-02T20:13:05.316Z,22.60
2019-03-02T20:16:11.966Z,20.13
2019-03-02T20:19:18.322Z,19.20
2019-03-02T20:22:22.390Z,17.27
2019-03-02T20:25:26.256Z,20.23
2019-03-02T20:28:30.068Z,21.23
2019-03-02T20:31:34.291Z,22.00
2019-03-02T20:34:38.312Z,25.70
2019-03-02T20:37:42.354Z,21.90
2019-03-02T20:40:46.218Z,26.07
2019-03-02T20:43:50.352Z,25.00
2019-03-02T20:46:54.372Z,27.50
2019-03-02T20:49:58.711Z,29.77
2019-03-02T20:53:02.756Z,27.00
2019-03-02T20:56:06.896Z,29.40
2019-03-02T20:59:10.952Z,35.03
2019-03-02T21:02:14.914Z,33.10
2019-03-02T21:05:18.941Z,37.57
2019-03-02T21:08:22.860Z,36.77
2019-03-02T21:11:26.938Z,37.80
2019-03-02T21:14:30.934Z,36.33
2019-03-02T21:17:34.842Z,33.00
2019-03-02T21:20:39.081Z,35.27
2019-03-02T21:23:42.998Z,36.17
2019-03-02T21:26:47.090Z,38.73
2019-03-02T21:29:50.918Z,37.37
2019-03-02T21:32:55.168Z,36.37
2019-03-02T21:35:59.035Z,39.93
2019-03-02T21:39:02.925Z,38.33
2019-03-02T21:42:06.897Z,40.67
2019-03-02T21:45:13.108Z,38.27
2019-03-02T21:48:16.949Z,37.30
2019-03-02T21:51:22.719Z,38.13
2019-03-02T21:54:26.606Z,41.87
2019-03-02T21:57:30.536Z,40.37
2019-03-02T22:00:34.350Z,45.77
2019-03-02T22:03:38.301Z,44.67
2019-03-02T22:06:42.214Z,40.67
2019-03-02T22:09:46.050Z,40.87
2019-03-02T22:12:50.158Z,41.50
2019-03-02T22:15:54.154Z,44.13
2019-03-02T22:18:58.074Z,44.13
2019-03-02T22:22:01.932Z,42.07
2019-03-02T22:25:06.783Z,41.00
2019-03-02T22:28:10.802Z,41.30
2019-03-02T22:31:14.959Z,43.10
2019-03-02T22:34:19.305Z,44.90
2019-03-02T22:37:23.165Z,45.63
2019-03-02T22:40:27.432Z,43.27
2019-03-02T22:43:31.588Z,48.37
2019-03-02T22:46:35.542Z,45.63
2019-03-02T22:49:39.767Z,45.87
2019-03-02T22:52:43.916Z,49.07
2019-03-02T22:55:47.943Z,46.97
2019-03-02T22:58:51.254Z,47.03
2019-03-02T23:02:18.674Z,50.37
2019-03-02T23:05:22.570Z,50.20
2019-03-02T23:08:26.534Z,46.73
2019-03-02T23:11:30.910Z,44.00
2019-03-02T23:14:35.018Z,48.40
2019-03-02T23:17:39.042Z,47.40
2019-03-02T23:20:43.138Z,50.73
2019-03-02T23:23:47.591Z,51.13
2019-03-02T23:26:51.508Z,52.97
2019-03-02T23:29:55.668Z,50.13
2019-03-02T23:32:59.851Z,53.80
2019-03-02T23:36:03.782Z,52.17
2019-03-02T23:39:08.071Z,53.07
2019-03-02T23:42:12.044Z,56.30
2019-03-02T23:45:16.056Z,58.67
2019-03-02T23:48:19.991Z,57.50
2019-03-02T23:51:23.811Z,57.33
2019-03-02T23:54:27.696Z,58.40
2019-03-02T23:57:31.558Z,61.77
